sensor_id;sensor_type;location;lat;lon;timestamp;temperature;humidity
31207;DHT22;17834;52.992;8.856;2023-04-19T14:19:33;13.10;44.90
31207;DHT22;17834;52.992;8.856;2023-04-19T14:21:59;13.10;45.80
31207;DHT22;17834;52.992;8.856;2023-04-19T14:24:25;12.90;45.10
31207;DHT22;17834;52.992;8.856;2023-04-19T14:26:50;12.80;46.80
31207;DHT22;17834;52.992;8.856;2023-04-19T14:29:16;12.70;46.20
31207;DHT22;17834;52.992;8.856;2023-04-19T14:31:42;12.70;47.30
31207;DHT22;17834;52.992;8.856;2023-04-19T14:34:07;12.60;46.10
31207;DHT22;17834;52.992;8.856;2023-04-19T14:36:33;12.70;46.70
31207;DHT22;17834;52.992;8.856;2023-04-19T14:38:58;12.70;46.00
31207;DHT22;17834;52.992;8.856;2023-04-19T14:41:24;12.80;46.30
31207;DHT22;17834;52.992;8.856;2023-04-19T14:43:49;12.80;45.50
31207;DHT22;17834;52.992;8.856;2023-04-19T14:46:16;13.00;45.40
31207;DHT22;17834;52.992;8.856;2023-04-19T14:48:41;13.00;46.00
31207;DHT22;17834;52.992;8.856;2023-04-19T14:51:07;13.00;46.50
31207;DHT22;17834;52.992;8.856;2023-04-19T14:53:33;13.10;46.00
31207;DHT22;17834;52.992;8.856;2023-04-19T14:55:58;13.10;46.60
31207;DHT22;17834;52.992;8.856;2023-04-19T14:58:27;13.10;45.40
31207;DHT22;17834;52.992;8.856;2023-04-19T15:00:52;13.10;45.90
31207;DHT22;17834;52.992;8.856;2023-04-19T15:03:19;13.10;46.60
31207;DHT22;17834;52.992;8.856;2023-04-19T15:05:44;13.10;46.70
31207;DHT22;17834;52.992;8.856;2023-04-19T15:08:10;13.10;47.20
31207;DHT22;17834;52.992;8.856;2023-04-19T15:10:36;13.10;46.90
31207;DHT22;17834;52.992;8.856;2023-04-19T15:13:02;13.10;46.40
31207;DHT22;17834;52.992;8.856;2023-04-19T15:15:28;13.10;47.70
31207;DHT22;17834;52.992;8.856;2023-04-19T15:17:53;13.00;46.50
31207;DHT22;17834;52.992;8.856;2023-04-19T15:20:19;13.00;46.90
31207;DHT22;17834;52.992;8.856;2023-04-19T15:22:44;12.90;45.70
31207;DHT22;17834;52.992;8.856;2023-04-19T15:25:10;12.80;45.40
31207;DHT22;17834;52.992;8.856;2023-04-19T15:27:36;12.80;46.50
31207;DHT22;17834;52.992;8.856;2023-04-19T15:30:01;12.80;46.70
31207;DHT22;17834;52.992;8.856;2023-04-19T15:32:28;12.80;47.60
31207;DHT22;17834;52.992;8.856;2023-04-19T15:34:58;12.80;47.80
31207;DHT22;17834;52.992;8.856;2023-04-19T15:37:24;12.80;47.20
31207;DHT22;17834;52.992;8.856;2023-04-19T15:39:51;12.90;47.10
31207;DHT22;17834;52.992;8.856;2023-04-19T15:42:17;12.80;47.10
31207;DHT22;17834;52.992;8.856;2023-04-19T15:44:42;12.80;47.00
31207;DHT22;17834;52.992;8.856;2023-04-19T15:47:08;12.70;47.50
31207;DHT22;17834;52.992;8.856;2023-04-19T15:49:33;12.70;45.60
31207;DHT22;17834;52.992;8.856;2023-04-19T15:51:59;12.70;47.20
31207;DHT22;17834;52.992;8.856;2023-04-19T15:54:25;12.60;45.80
31207;DHT22;17834;52.992;8.856;2023-04-19T15:56:51;12.60;46.40
31207;DHT22;17834;52.992;8.856;2023-04-19T15:59:17;12.50;46.10
31207;DHT22;17834;52.992;8.856;2023-04-19T16:01:43;12.50;46.60
31207;DHT22;17834;52.992;8.856;2023-04-19T16:04:09;12.40;45.80
31207;DHT22;17834;52.992;8.856;2023-04-19T16:06:34;12.40;46.00
31207;DHT22;17834;52.992;8.856;2023-04-19T16:09:00;12.30;45.60
31207;DHT22;17834;52.992;8.856;2023-04-19T16:11:25;12.40;46.30
31207;DHT22;17834;52.992;8.856;2023-04-19T16:13:51;12.40;46.40
31207;DHT22;17834;52.992;8.856;2023-04-19T16:16:17;12.40;46.70
31207;DHT22;17834;52.992;8.856;2023-04-19T16:18:42;12.30;47.20
31207;DHT22;17834;52.992;8.856;2023-04-19T16:21:08;12.40;48.00
31207;DHT22;17834;52.992;8.856;2023-04-19T16:23:35;12.40;47.60
31207;DHT22;17834;52.992;8.856;2023-04-19T16:26:00;12.30;45.90
31207;DHT22;17834;52.992;8.856;2023-04-19T16:28:27;12.30;47.70
31207;DHT22;17834;52.992;8.856;2023-04-19T16:30:53;12.30;47.40
31207;DHT22;17834;52.992;8.856;2023-04-19T16:33:19;12.20;47.90
31207;DHT22;17834;52.992;8.856;2023-04-19T16:35:45;12.20;48.40
31207;DHT22;17834;52.992;8.856;2023-04-19T16:38:10;12.20;48.00
31207;DHT22;17834;52.992;8.856;2023-04-19T16:40:36;12.10;45.40
31207;DHT22;17834;52.992;8.856;2023-04-19T16:43:02;12.00;46.50
31207;DHT22;17834;52.992;8.856;2023-04-19T16:45:30;11.90;46.60
31207;DHT22;17834;52.992;8.856;2023-04-19T16:47:56;11.90;46.60
31207;DHT22;17834;52.992;8.856;2023-04-19T16:50:22;11.90;45.80
31207;DHT22;17834;52.992;8.856;2023-04-19T16:52:47;11.80;46.30
31207;DHT22;17834;52.992;8.856;2023-04-19T16:55:13;11.80;46.00
31207;DHT22;17834;52.992;8.856;2023-04-19T16:57:39;11.70;46.00
31207;DHT22;17834;52.992;8.856;2023-04-19T17:00:05;11.70;46.20
31207;DHT22;17834;52.992;8.856;2023-04-19T17:02:32;11.70;46.50
31207;DHT22;17834;52.992;8.856;2023-04-19T17:04:57;11.60;46.70
31207;DHT22;17834;52.992;8.856;2023-04-19T17:07:23;11.60;47.10
31207;DHT22;17834;52.992;8.856;2023-04-19T17:09:48;11.50;46.70
31207;DHT22;17834;52.992;8.856;2023-04-19T17:12:14;11.50;46.30
31207;DHT22;17834;52.992;8.856;2023-04-19T17:14:40;11.50;46.40
31207;DHT22;17834;52.992;8.856;2023-04-19T17:17:05;11.40;46.40
31207;DHT22;17834;52.992;8.856;2023-04-19T17:19:31;11.40;45.70
31207;DHT22;17834;52.992;8.856;2023-04-19T17:21:57;11.40;44.30
31207;DHT22;17834;52.992;8.856;2023-04-19T17:24:29;11.30;44.30
31207;DHT22;17834;52.992;8.856;2023-04-19T17:26:55;11.20;44.50
31207;DHT22;17834;52.992;8.856;2023-04-19T17:29:21;11.20;45.10
31207;DHT22;17834;52.992;8.856;2023-04-19T17:31:46;11.20;43.80
31207;DHT22;17834;52.992;8.856;2023-04-19T17:34:12;11.10;41.70
31207;DHT22;17834;52.992;8.856;2023-04-19T17:36:37;11.10;42.30
31207;DHT22;17834;52.992;8.856;2023-04-19T17:39:03;11.10;42.80
31207;DHT22;17834;52.992;8.856;2023-04-19T17:41:28;11.00;43.30
31207;DHT22;17834;52.992;8.856;2023-04-19T17:43:54;11.00;43.10
31207;DHT22;17834;52.992;8.856;2023-04-19T17:46:20;11.00;43.30
31207;DHT22;17834;52.992;8.856;2023-04-19T17:48:46;10.90;43.70
31207;DHT22;17834;52.992;8.856;2023-04-19T17:51:12;10.90;43.00
31207;DHT22;17834;52.992;8.856;2023-04-19T17:53:38;10.80;44.10
31207;DHT22;17834;52.992;8.856;2023-04-19T17:56:03;10.80;44.10
31207;DHT22;17834;52.992;8.856;2023-04-19T17:58:29;10.80;44.00
31207;DHT22;17834;52.992;8.856;2023-04-19T18:00:55;10.80;44.60
31207;DHT22;17834;52.992;8.856;2023-04-19T18:03:21;10.70;45.00
31207;DHT22;17834;52.992;8.856;2023-04-19T18:05:46;10.70;45.80
31207;DHT22;17834;52.992;8.856;2023-04-19T18:08:12;10.70;45.30
31207;DHT22;17834;52.992;8.856;2023-04-19T18:10:38;10.60;46.50
31207;DHT22;17834;52.992;8.856;2023-04-19T18:13:04;10.60;46.50
31207;DHT22;17834;52.992;8.856;2023-04-19T18:15:30;10.50;46.40
31207;DHT22;17834;52.992;8.856;2023-04-19T18:17:55;10.40;46.80
31207;DHT22;17834;52.992;8.856;2023-04-19T18:20:21;10.40;47.10
31207;DHT22;17834;52.992;8.856;2023-04-19T18:22:50;10.40;46.60
31207;DHT22;17834;52.992;8.856;2023-04-19T18:25:16;10.40;45.40
31207;DHT22;17834;52.992;8.856;2023-04-19T18:27:41;10.40;45.20
31207;DHT22;17834;52.992;8.856;2023-04-19T18:30:08;10.40;45.40
31207;DHT22;17834;52.992;8.856;2023-04-19T18:32:34;10.40;44.40
31207;DHT22;17834;52.992;8.856;2023-04-19T18:35:00;10.40;44.90
31207;DHT22;17834;52.992;8.856;2023-04-19T18:37:28;10.40;44.10
31207;DHT22;17834;52.992;8.856;2023-04-19T18:39:53;10.40;44.00
31207;DHT22;17834;52.992;8.856;2023-04-19T18:42:19;10.40;44.20
31207;DHT22;17834;52.992;8.856;2023-04-19T18:44:44;10.40;45.20
31207;DHT22;17834;52.992;8.856;2023-04-19T18:47:10;10.30;45.40
31207;DHT22;17834;52.992;8.856;2023-04-19T18:49:36;10.20;44.40
31207;DHT22;17834;52.992;8.856;2023-04-19T18:52:01;10.20;44.80
31207;DHT22;17834;52.992;8.856;2023-04-19T18:54:27;10.10;45.30
31207;DHT22;17834;52.992;8.856;2023-04-19T18:56:53;10.10;45.30
31207;DHT22;17834;52.992;8.856;2023-04-19T18:59:18;10.00;45.80
31207;DHT22;17834;52.992;8.856;2023-04-19T19:01:44;9.90;46.10
31207;DHT22;17834;52.992;8.856;2023-04-19T19:04:10;10.00;46.60
31207;DHT22;17834;52.992;8.856;2023-04-19T19:06:36;9.80;46.90
31207;DHT22;17834;52.992;8.856;2023-04-19T19:09:02;9.70;47.50
31207;DHT22;17834;52.992;8.856;2023-04-19T19:11:28;9.70;47.80
31207;DHT22;17834;52.992;8.856;2023-04-19T19:13:54;9.70;47.60
31207;DHT22;17834;52.992;8.856;2023-04-19T19:16:20;9.70;48.10
31207;DHT22;17834;52.992;8.856;2023-04-19T19:18:45;9.80;48.20
31207;DHT22;17834;52.992;8.856;2023-04-19T19:21:11;9.80;48.30
31207;DHT22;17834;52.992;8.856;2023-04-19T19:23:36;9.70;48.90
31207;DHT22;17834;52.992;8.856;2023-04-19T19:26:02;9.80;48.60
31207;DHT22;17834;52.992;8.856;2023-04-19T19:28:28;9.80;49.10
31207;DHT22;17834;52.992;8.856;2023-04-19T19:30:54;9.80;49.80
31207;DHT22;17834;52.992;8.856;2023-04-19T19:33:19;9.80;50.00
31207;DHT22;17834;52.992;8.856;2023-04-19T19:35:45;9.70;50.40
31207;DHT22;17834;52.992;8.856;2023-04-19T19:38:11;9.70;50.60
31207;DHT22;17834;52.992;8.856;2023-04-19T19:40:37;9.70;51.10
31207;DHT22;17834;52.992;8.856;2023-04-19T19:43:02;9.60;51.30
31207;DHT22;17834;52.992;8.856;2023-04-19T19:45:29;9.60;51.90
31207;DHT22;17834;52.992;8.856;2023-04-19T19:47:55;9.60;52.40
31207;DHT22;17834;52.992;8.856;2023-04-19T19:50:23;9.60;52.00
31207;DHT22;17834;52.992;8.856;2023-04-19T19:52:51;9.60;52.30
31207;DHT22;17834;52.992;8.856;2023-04-19T19:55:16;9.60;52.60
31207;DHT22;17834;52.992;8.856;2023-04-19T19:57:42;9.50;53.10
31207;DHT22;17834;52.992;8.856;2023-04-19T20:00:08;9.40;53.60
31207;DHT22;17834;52.992;8.856;2023-04-19T20:02:36;9.30;54.20
31207;DHT22;17834;52.992;8.856;2023-04-19T20:05:02;9.20;54.30
31207;DHT22;17834;52.992;8.856;2023-04-19T20:07:28;9.20;54.50
31207;DHT22;17834;52.992;8.856;2023-04-19T20:09:54;9.30;54.90
31207;DHT22;17834;52.992;8.856;2023-04-19T20:12:19;9.20;55.30
31207;DHT22;17834;52.992;8.856;2023-04-19T20:14:45;9.30;55.40
31207;DHT22;17834;52.992;8.856;2023-04-19T20:17:10;9.10;55.70
31207;DHT22;17834;52.992;8.856;2023-04-19T20:19:36;9.10;55.90
31207;DHT22;17834;52.992;8.856;2023-04-19T20:22:02;9.10;56.40
31207;DHT22;17834;52.992;8.856;2023-04-19T20:24:28;8.90;56.60
31207;DHT22;17834;52.992;8.856;2023-04-19T20:26:54;8.80;56.70
31207;DHT22;17834;52.992;8.856;2023-04-19T20:29:19;8.70;57.10
31207;DHT22;17834;52.992;8.856;2023-04-19T20:31:45;8.60;57.20
31207;DHT22;17834;52.992;8.856;2023-04-19T20:34:10;8.60;57.90
31207;DHT22;17834;52.992;8.856;2023-04-19T20:36:36;8.60;57.80
31207;DHT22;17834;52.992;8.856;2023-04-19T20:39:02;8.60;58.00
31207;DHT22;17834;52.992;8.856;2023-04-19T20:41:34;8.60;58.90
31207;DHT22;17834;52.992;8.856;2023-04-19T20:43:59;8.60;58.00
31207;DHT22;17834;52.992;8.856;2023-04-19T20:46:25;8.60;58.40
31207;DHT22;17834;52.992;8.856;2023-04-19T20:48:51;8.60;58.20
31207;DHT22;17834;52.992;8.856;2023-04-19T20:51:17;8.60;58.60
31207;DHT22;17834;52.992;8.856;2023-04-19T20:53:43;8.60;58.40
31207;DHT22;17834;52.992;8.856;2023-04-19T20:56:08;8.70;58.90
31207;DHT22;17834;52.992;8.856;2023-04-19T20:58:34;8.60;59.50
31207;DHT22;17834;52.992;8.856;2023-04-19T21:01:00;8.70;59.50
31207;DHT22;17834;52.992;8.856;2023-04-19T21:03:25;8.70;59.60
31207;DHT22;17834;52.992;8.856;2023-04-19T21:05:51;8.70;59.70
31207;DHT22;17834;52.992;8.856;2023-04-19T21:08:16;8.80;59.30
31207;DHT22;17834;52.992;8.856;2023-04-19T21:10:43;8.80;59.20
31207;DHT22;17834;52.992;8.856;2023-04-19T21:13:09;8.80;59.30
31207;DHT22;17834;52.992;8.856;2023-04-19T21:15:34;8.90;59.30
31207;DHT22;17834;52.992;8.856;2023-04-19T21:18:01;8.90;59.10
31207;DHT22;17834;52.992;8.856;2023-04-19T21:20:27;8.90;59.10
31207;DHT22;17834;52.992;8.856;2023-04-19T21:22:52;9.00;59.10
31207;DHT22;17834;52.992;8.856;2023-04-19T21:25:18;9.00;59.20
31207;DHT22;17834;52.992;8.856;2023-04-19T21:27:43;9.00;59.30
31207;DHT22;17834;52.992;8.856;2023-04-19T21:30:10;9.00;59.20
31207;DHT22;17834;52.992;8.856;2023-04-19T21:32:35;9.00;59.70
31207;DHT22;17834;52.992;8.856;2023-04-19T21:35:01;9.00;60.00
31207;DHT22;17834;52.992;8.856;2023-04-19T21:37:27;9.00;60.10
31207;DHT22;17834;52.992;8.856;2023-04-19T21:39:53;8.90;61.00
31207;DHT22;17834;52.992;8.856;2023-04-19T21:42:19;8.80;61.20
31207;DHT22;17834;52.992;8.856;2023-04-19T21:44:45;8.90;61.90
31207;DHT22;17834;52.992;8.856;2023-04-19T21:47:11;8.80;62.40
31207;DHT22;17834;52.992;8.856;2023-04-19T21:49:37;8.70;62.90
31207;DHT22;17834;52.992;8.856;2023-04-19T21:52:06;8.70;63.60
31207;DHT22;17834;52.992;8.856;2023-04-19T21:54:31;8.70;63.80
31207;DHT22;17834;52.992;8.856;2023-04-19T21:56:57;8.90;64.50
31207;DHT22;17834;52.992;8.856;2023-04-19T21:59:23;8.90;64.90
31207;DHT22;17834;52.992;8.856;2023-04-19T22:01:49;8.90;65.20
31207;DHT22;17834;52.992;8.856;2023-04-19T22:04:15;8.90;64.80
31207;DHT22;17834;52.992;8.856;2023-04-19T22:06:41;8.90;65.70
31207;DHT22;17834;52.992;8.856;2023-04-19T22:09:10;8.90;66.20
31207;DHT22;17834;52.992;8.856;2023-04-19T22:11:38;8.90;67.50
31207;DHT22;17834;52.992;8.856;2023-04-19T22:14:03;8.90;68.90
31207;DHT22;17834;52.992;8.856;2023-04-19T22:16:29;8.90;69.50
31207;DHT22;17834;52.992;8.856;2023-04-19T22:18:57;8.90;70.00
31207;DHT22;17834;52.992;8.856;2023-04-19T22:21:24;8.90;70.40
31207;DHT22;17834;52.992;8.856;2023-04-19T22:23:50;8.90;70.70
31207;DHT22;17834;52.992;8.856;2023-04-19T22:26:16;8.90;71.00
31207;DHT22;17834;52.992;8.856;2023-04-19T22:28:42;8.80;71.60
31207;DHT22;17834;52.992;8.856;2023-04-19T22:31:07;8.80;72.00
31207;DHT22;17834;52.992;8.856;2023-04-19T22:33:33;8.70;72.60
31207;DHT22;17834;52.992;8.856;2023-04-19T22:35:59;8.50;72.90
31207;DHT22;17834;52.992;8.856;2023-04-19T22:38:24;8.50;73.30
31207;DHT22;17834;52.992;8.856;2023-04-19T22:40:50;8.40;74.20
31207;DHT22;17834;52.992;8.856;2023-04-19T22:43:16;8.50;74.80
31207;DHT22;17834;52.992;8.856;2023-04-19T22:45:42;8.40;75.00
31207;DHT22;17834;52.992;8.856;2023-04-19T22:48:13;8.30;75.00
31207;DHT22;17834;52.992;8.856;2023-04-19T22:50:38;8.30;74.80
31207;DHT22;17834;52.992;8.856;2023-04-19T22:53:06;8.30;75.20
31207;DHT22;17834;52.992;8.856;2023-04-19T22:55:31;8.20;75.40
31207;DHT22;17834;52.992;8.856;2023-04-19T22:57:57;8.10;75.60
31207;DHT22;17834;52.992;8.856;2023-04-19T23:00:22;8.10;75.70
31207;DHT22;17834;52.992;8.856;2023-04-19T23:02:48;8.10;76.10
31207;DHT22;17834;52.992;8.856;2023-04-19T23:05:14;8.00;76.30
31207;DHT22;17834;52.992;8.856;2023-04-19T23:07:42;8.00;76.70
31207;DHT22;17834;52.992;8.856;2023-04-19T23:10:10;7.90;76.60
31207;DHT22;17834;52.992;8.856;2023-04-19T23:12:37;7.90;77.00
31207;DHT22;17834;52.992;8.856;2023-04-19T23:15:03;7.80;77.40
31207;DHT22;17834;52.992;8.856;2023-04-19T23:17:29;7.80;77.70
31207;DHT22;17834;52.992;8.856;2023-04-19T23:19:56;7.80;77.30
31207;DHT22;17834;52.992;8.856;2023-04-19T23:22:21;7.90;77.20
31207;DHT22;17834;52.992;8.856;2023-04-19T23:24:47;7.90;77.00
31207;DHT22;17834;52.992;8.856;2023-04-19T23:27:12;8.00;77.10
31207;DHT22;17834;52.992;8.856;2023-04-19T23:29:38;8.10;75.80
31207;DHT22;17834;52.992;8.856;2023-04-19T23:32:04;8.30;74.70
31207;DHT22;17834;52.992;8.856;2023-04-19T23:34:30;8.40;74.50
31207;DHT22;17834;52.992;8.856;2023-04-19T23:36:55;8.50;74.50
31207;DHT22;17834;52.992;8.856;2023-04-19T23:39:21;8.60;74.40
31207;DHT22;17834;52.992;8.856;2023-04-19T23:41:47;8.60;74.30
31207;DHT22;17834;52.992;8.856;2023-04-19T23:44:12;8.70;74.50
31207;DHT22;17834;52.992;8.856;2023-04-19T23:46:38;8.70;76.30
31207;DHT22;17834;52.992;8.856;2023-04-19T23:49:05;8.80;77.80
31207;DHT22;17834;52.992;8.856;2023-04-19T23:51:31;8.70;79.00
31207;DHT22;17834;52.992;8.856;2023-04-19T23:53:57;8.60;80.00
31207;DHT22;17834;52.992;8.856;2023-04-19T23:56:22;8.70;79.80
31207;DHT22;17834;52.992;8.856;2023-04-19T23:58:48;8.50;80.30
